Terminal Aerodrome Forecast
Issued by NWS Hastings, NE

Home | Current Version | Previous Version | Text Only | Print | Product List | Glossary On
Versions: 1 2 3 4 5 6 7 8 9 10 11 12 13 14 15 16 17 18 19 20 21 22 23 24 25 26 27 28
000
FTUS43 KGID 221120
TAFGRI
TAF
KGRI 221120Z 2212/2312 VRB03KT P6SM SCT250
     FM221400 18012KT P6SM SCT080 BKN250
     FM230100 16008KT P6SM VCSH BKN050 BKN080
     FM230600 15010KT 5SM -RA SCT010 BKN030=

USA.gov is the U.S. government's official web portal to all federal, state and local government web resources and services.